createdAt,value
2022-11-26T00:01:44.890Z,22.60
2022-11-26T00:04:13.077Z,27.80
2022-11-26T00:06:43.023Z,26.20
2022-11-26T00:09:25.231Z,23.60
2022-11-26T00:11:53.170Z,22.70
2022-11-26T00:14:21.289Z,23.10
2022-11-26T00:16:49.434Z,23.60
2022-11-26T00:19:17.396Z,21.70
2022-11-26T00:21:45.520Z,21.70
2022-11-26T00:24:27.364Z,28.00
2022-11-26T00:26:57.673Z,25.50
2022-11-26T00:29:25.848Z,25.50
2022-11-26T00:31:53.972Z,30.40
2022-11-26T00:34:22.169Z,26.70
2022-11-26T00:36:50.134Z,25.10
2022-11-26T00:39:23.672Z,22.70
2022-11-26T00:41:52.982Z,24.40
2022-11-26T00:44:23.765Z,23.70
2022-11-26T00:46:51.801Z,26.30
2022-11-26T00:49:21.205Z,25.90
2022-11-26T00:51:49.395Z,27.60
2022-11-26T00:54:19.675Z,22.50
2022-11-26T00:56:48.545Z,27.70
2022-11-26T00:59:20.475Z,26.90
2022-11-26T01:01:49.838Z,26.40
2022-11-26T01:04:17.998Z,24.70
2022-11-26T01:06:46.816Z,26.90
2022-11-26T01:09:20.694Z,25.10
2022-11-26T01:11:53.750Z,27.40
2022-11-26T01:14:23.253Z,26.10
2022-11-26T01:16:54.646Z,22.70
2022-11-26T01:19:22.788Z,25.00
2022-11-26T01:21:50.917Z,25.40
2022-11-26T01:24:18.924Z,22.60
2022-11-26T01:26:47.042Z,25.70
2022-11-26T01:29:19.856Z,26.10
2022-11-26T01:31:48.020Z,24.90
2022-11-26T01:34:16.175Z,25.40
2022-11-26T01:36:44.713Z,26.00
2022-11-26T01:39:19.175Z,24.20
2022-11-26T01:42:10.655Z,22.30
2022-11-26T01:44:39.016Z,24.40
2022-11-26T01:47:40.263Z,27.10
2022-11-26T01:50:34.293Z,22.10
2022-11-26T01:53:23.801Z,24.20
2022-11-26T01:55:54.840Z,25.10
2022-11-26T01:58:29.532Z,21.20
2022-11-26T02:00:57.691Z,22.10
2022-11-26T02:03:28.351Z,19.10
2022-11-26T02:06:02.439Z,21.20
2022-11-26T02:08:33.097Z,20.40
2022-11-26T02:11:14.032Z,18.70
2022-11-26T02:13:42.732Z,18.30
2022-11-26T02:16:28.064Z,17.70
2022-11-26T02:19:17.662Z,16.50
2022-11-26T02:21:56.517Z,19.50
2022-11-26T02:24:43.349Z,20.60
2022-11-26T02:27:14.410Z,27.40
2022-11-26T02:30:07.010Z,22.50
2022-11-26T02:32:47.296Z,21.30
2022-11-26T02:35:26.554Z,20.60
2022-11-26T02:38:00.219Z,20.60
2022-11-26T02:40:28.806Z,21.40
2022-11-26T02:42:57.139Z,19.80
2022-11-26T02:45:34.213Z,25.10
2022-11-26T02:48:05.982Z,22.10
2022-11-26T02:50:45.115Z,24.60
2022-11-26T02:53:15.419Z,21.10
2022-11-26T02:55:49.791Z,19.40
2022-11-26T02:58:19.658Z,23.20
2022-11-26T03:00:49.720Z,21.10
2022-11-26T03:03:26.103Z,18.50
2022-11-26T03:05:58.986Z,20.60
2022-11-26T03:08:28.899Z,22.10
2022-11-26T03:10:57.242Z,21.90
2022-11-26T03:13:25.586Z,20.10
2022-11-26T03:15:53.769Z,21.30
2022-11-26T03:18:21.882Z,23.60
2022-11-26T03:20:52.342Z,20.70
2022-11-26T03:23:20.947Z,20.00
2022-11-26T03:25:49.055Z,22.70
2022-11-26T03:28:17.231Z,20.70
2022-11-26T03:30:45.348Z,23.40
2022-11-26T03:33:13.346Z,19.10
2022-11-26T03:35:41.487Z,17.80
2022-11-26T03:38:09.384Z,27.00
2022-11-26T03:40:37.407Z,24.40
2022-11-26T03:43:05.428Z,22.90
2022-11-26T03:45:33.873Z,20.70
2022-11-26T03:48:01.983Z,21.60
2022-11-26T03:50:30.060Z,20.60
2022-11-26T03:52:57.992Z,21.50
2022-11-26T03:55:26.165Z,24.20
2022-11-26T03:57:54.213Z,24.50
2022-11-26T04:00:22.617Z,22.10
2022-11-26T04:02:51.787Z,20.80
2022-11-26T04:05:20.327Z,25.60
2022-11-26T04:07:48.564Z,26.40
2022-11-26T04:10:16.712Z,26.20
2022-11-26T04:12:44.655Z,23.40
2022-11-26T04:15:12.902Z,22.40
2022-11-26T04:17:41.077Z,20.50
2022-11-26T04:20:09.703Z,22.90
2022-11-26T04:22:37.977Z,18.30
2022-11-26T04:25:06.323Z,17.10
2022-11-26T04:27:34.869Z,16.80
2022-11-26T04:30:03.814Z,20.80
2022-11-26T04:32:31.989Z,20.50
2022-11-26T04:35:00.084Z,18.40
2022-11-26T04:37:28.045Z,19.80
2022-11-26T04:39:56.206Z,17.20
2022-11-26T04:42:24.165Z,17.60
2022-11-26T04:44:52.179Z,19.80
2022-11-26T04:47:20.134Z,20.10
2022-11-26T04:49:48.259Z,18.90
2022-11-26T04:52:16.616Z,17.90
2022-11-26T04:54:44.651Z,20.10
2022-11-26T04:57:12.829Z,20.80
2022-11-26T04:59:40.803Z,21.30
2022-11-26T05:02:08.758Z,15.60
2022-11-26T05:04:37.096Z,14.80
2022-11-26T05:07:05.930Z,19.40
2022-11-26T05:09:34.006Z,23.50
2022-11-26T05:12:02.340Z,17.40
2022-11-26T05:14:30.371Z,25.60
2022-11-26T05:16:58.576Z,17.70
2022-11-26T05:19:26.572Z,17.00
2022-11-26T05:21:54.480Z,21.70
2022-11-26T05:24:22.664Z,21.30
2022-11-26T05:26:55.297Z,24.40
2022-11-26T05:29:26.152Z,20.60
2022-11-26T05:31:54.089Z,23.10
2022-11-26T05:34:22.560Z,19.90
2022-11-26T05:36:50.572Z,20.90
2022-11-26T05:39:18.545Z,20.00
2022-11-26T05:41:46.625Z,17.80
2022-11-26T05:44:14.702Z,23.70
2022-11-26T05:46:43.510Z,17.40
2022-11-26T05:49:11.530Z,22.70
2022-11-26T05:51:39.537Z,17.30
2022-11-26T05:54:07.718Z,19.40
2022-11-26T05:56:35.995Z,16.60
2022-11-26T05:59:04.098Z,14.10
2022-11-26T06:01:32.000Z,15.10
2022-11-26T06:03:59.937Z,19.70
2022-11-26T06:06:27.909Z,14.10
2022-11-26T06:08:55.825Z,14.30
2022-11-26T06:11:23.945Z,18.10
2022-11-26T06:13:52.336Z,15.20
2022-11-26T06:16:20.563Z,17.50
2022-11-26T06:18:48.752Z,17.40
2022-11-26T06:21:16.720Z,16.80
2022-11-26T06:23:52.939Z,18.50
2022-11-26T06:26:24.160Z,16.60
2022-11-26T06:28:52.262Z,17.10
2022-11-26T06:31:20.363Z,16.10
2022-11-26T06:33:48.717Z,17.20
2022-11-26T06:36:16.780Z,19.50
2022-11-26T06:38:44.858Z,16.80
2022-11-26T06:41:12.839Z,20.30
2022-11-26T06:43:41.188Z,21.20
2022-11-26T06:46:11.238Z,17.80
2022-11-26T06:48:40.462Z,18.20
2022-11-26T06:51:15.261Z,22.70
2022-11-26T06:53:43.982Z,22.30
2022-11-26T06:56:18.512Z,21.70
2022-11-26T07:01:19.811Z,20.10
2022-11-26T07:03:48.171Z,26.90
2022-11-26T07:06:31.227Z,20.70
2022-11-26T07:09:05.654Z,16.80
2022-11-26T07:11:34.183Z,16.80
2022-11-26T07:14:02.769Z,20.40
2022-11-26T07:16:30.935Z,17.30
2022-11-26T07:19:02.907Z,14.60
2022-11-26T07:21:31.449Z,16.40
2022-11-26T07:23:59.873Z,22.80
2022-11-26T07:26:27.939Z,17.90
2022-11-26T07:28:55.866Z,17.10
2022-11-26T07:31:24.249Z,19.40
2022-11-26T07:33:52.819Z,19.60
2022-11-26T07:36:24.377Z,19.80
2022-11-26T07:38:57.831Z,18.60
2022-11-26T07:41:26.956Z,21.10
2022-11-26T07:43:55.589Z,25.60
2022-11-26T07:46:26.703Z,19.00
2022-11-26T07:48:55.998Z,32.00
2022-11-26T07:51:29.189Z,21.50
2022-11-26T07:53:59.693Z,18.90
2022-11-26T07:56:27.810Z,18.40
2022-11-26T07:58:55.833Z,19.70
2022-11-26T08:01:30.060Z,24.90
2022-11-26T08:04:00.410Z,23.60
2022-11-26T08:06:30.647Z,23.10
2022-11-26T08:09:00.249Z,24.00
2022-11-26T08:11:31.382Z,27.10
2022-11-26T08:14:02.357Z,27.70
2022-11-26T08:16:31.196Z,23.10
2022-11-26T08:19:02.393Z,21.60
2022-11-26T08:21:30.617Z,25.50
2022-11-26T08:23:58.897Z,21.70
2022-11-26T08:26:35.091Z,23.10
2022-11-26T08:29:05.593Z,23.90
2022-11-26T08:31:35.103Z,22.50
2022-11-26T08:34:03.804Z,19.20
2022-11-26T08:36:31.992Z,18.50
2022-11-26T08:39:00.683Z,21.20
2022-11-26T08:41:29.093Z,19.70
2022-11-26T08:44:12.425Z,19.60
2022-11-26T08:46:42.058Z,19.40
2022-11-26T08:49:13.416Z,20.00
2022-11-26T08:51:42.008Z,23.60
2022-11-26T08:54:11.433Z,21.20
2022-11-26T08:56:39.556Z,23.10
2022-11-26T08:59:07.731Z,21.80
2022-11-26T09:01:35.864Z,19.80
2022-11-26T09:04:04.895Z,22.00
2022-11-26T09:06:37.301Z,23.00
2022-11-26T09:09:13.111Z,20.50
2022-11-26T09:11:49.501Z,27.30
2022-11-26T09:14:25.079Z,21.60
2022-11-26T09:16:55.370Z,20.60
2022-11-26T09:19:24.601Z,24.60
2022-11-26T09:21:53.205Z,25.80
2022-11-26T09:24:23.309Z,20.00
2022-11-26T09:26:52.638Z,27.30
2022-11-26T09:29:22.881Z,23.90
2022-11-26T09:34:39.909Z,21.10
2022-11-26T09:37:08.460Z,23.30
2022-11-26T09:39:36.698Z,21.00
2022-11-26T09:42:05.627Z,22.30
2022-11-26T09:44:41.060Z,23.50
2022-11-26T09:47:22.643Z,19.30
2022-11-26T09:49:57.431Z,26.70
2022-11-26T09:52:52.778Z,22.50
2022-11-26T09:55:31.209Z,22.90
2022-11-26T09:58:13.907Z,17.90
2022-11-26T10:00:56.512Z,26.30
2022-11-26T10:03:36.733Z,21.60
2022-11-26T10:06:42.979Z,24.50
2022-11-26T10:09:26.376Z,27.90
2022-11-26T10:12:10.912Z,20.80
2022-11-26T10:14:54.494Z,28.30
2022-11-26T10:17:44.151Z,21.60
2022-11-26T10:20:44.936Z,24.60
2022-11-26T10:23:13.114Z,23.70
2022-11-26T10:25:46.507Z,35.00
2022-11-26T10:28:33.709Z,33.70
2022-11-26T10:31:14.259Z,27.00
2022-11-26T10:33:56.379Z,20.10
2022-11-26T10:36:42.362Z,18.60
2022-11-26T10:41:44.253Z,18.60
2022-11-26T10:44:28.832Z,15.90
2022-11-26T10:46:57.947Z,20.70
2022-11-26T10:49:29.575Z,18.50
2022-11-26T10:52:04.408Z,23.30
2022-11-26T10:54:35.771Z,20.10
2022-11-26T10:57:10.005Z,19.10
2022-11-26T10:59:44.161Z,23.80
2022-11-26T11:02:39.447Z,19.80
2022-11-26T11:05:10.374Z,19.30
2022-11-26T11:07:38.724Z,19.60
2022-11-26T11:10:10.033Z,15.50
2022-11-26T11:13:01.132Z,15.30
2022-11-26T11:15:32.366Z,16.10
2022-11-26T11:18:13.318Z,14.10
2022-11-26T11:20:52.417Z,16.30
2022-11-26T11:23:39.915Z,25.10
2022-11-26T11:26:23.795Z,21.50
2022-11-26T11:28:55.178Z,24.30
2022-11-26T11:31:26.491Z,22.90
2022-11-26T11:34:18.930Z,28.40
2022-11-26T11:37:05.345Z,23.70
2022-11-26T11:39:35.583Z,23.40
2022-11-26T11:42:16.622Z,23.70
2022-11-26T11:44:47.968Z,24.40
2022-11-26T11:47:41.107Z,23.40
2022-11-26T11:50:44.383Z,23.20
2022-11-26T11:53:38.320Z,27.60
2022-11-26T11:56:39.140Z,31.10
2022-11-26T11:59:36.270Z,25.50
2022-11-26T12:02:10.674Z,24.40
2022-11-26T12:04:59.199Z,30.50
2022-11-26T12:07:48.021Z,27.50
2022-11-26T12:10:19.236Z,24.80
2022-11-26T12:12:52.562Z,24.90
2022-11-26T12:15:30.896Z,24.90
2022-11-26T12:18:22.212Z,21.00
2022-11-26T12:21:04.959Z,22.20
2022-11-26T12:23:53.752Z,20.50
2022-11-26T12:26:33.200Z,14.00
2022-11-26T12:29:17.903Z,19.00
2022-11-26T12:31:51.197Z,17.40
2022-11-26T12:34:32.096Z,16.20
2022-11-26T12:37:12.347Z,17.30
2022-11-26T12:39:53.876Z,18.90
2022-11-26T12:42:47.961Z,20.80
2022-11-26T12:45:49.400Z,21.60
2022-11-26T12:48:48.701Z,24.30
2022-11-26T12:51:44.432Z,31.20
2022-11-26T12:54:16.064Z,35.90
2022-11-26T12:57:07.313Z,32.70
2022-11-26T12:59:49.429Z,33.20
2022-11-26T13:02:21.476Z,27.80
2022-11-26T13:04:51.733Z,32.10
2022-11-26T13:07:42.307Z,34.10
2022-11-26T13:10:29.443Z,38.20
2022-11-26T13:13:00.373Z,29.80
2022-11-26T13:15:34.240Z,26.40
2022-11-26T13:18:04.763Z,32.60
2022-11-26T13:20:50.324Z,34.30
2022-11-26T13:23:55.920Z,39.80
2022-11-26T13:26:42.859Z,35.90
2022-11-26T13:30:02.049Z,39.60
2022-11-26T13:32:49.310Z,36.40
2022-11-26T13:35:36.680Z,41.40
2022-11-26T13:38:24.787Z,34.30
2022-11-26T13:41:02.408Z,33.90
2022-11-26T13:43:50.450Z,35.60
2022-11-26T13:46:22.503Z,36.40
2022-11-26T13:49:06.982Z,36.30
2022-11-26T13:51:39.980Z,37.30
2022-11-26T13:54:21.661Z,32.90
2022-11-26T13:56:55.906Z,37.70
2022-11-26T13:59:28.571Z,31.90
2022-11-26T14:01:57.596Z,32.90
2022-11-26T14:04:26.035Z,38.40
2022-11-26T14:07:06.358Z,39.60
2022-11-26T14:09:46.633Z,40.10
2022-11-26T14:12:16.651Z,35.20
2022-11-26T14:14:47.879Z,35.10
2022-11-26T14:17:22.209Z,38.30
2022-11-26T14:19:58.860Z,40.00
2022-11-26T14:22:36.256Z,37.60
2022-11-26T14:25:13.183Z,46.50
2022-11-26T14:27:54.867Z,46.60
2022-11-26T14:30:25.706Z,44.10
2022-11-26T14:33:12.187Z,42.00
2022-11-26T14:35:41.898Z,37.00
2022-11-26T14:38:28.273Z,32.90
2022-11-26T14:41:01.445Z,42.90
2022-11-26T14:43:29.872Z,43.20
2022-11-26T14:46:06.778Z,34.80
2022-11-26T14:48:42.145Z,36.30
2022-11-26T14:51:12.139Z,34.20
2022-11-26T14:53:47.789Z,35.30
2022-11-26T14:56:23.787Z,37.60
2022-11-26T14:58:55.057Z,35.00
2022-11-26T15:01:25.919Z,30.50
2022-11-26T15:04:01.072Z,32.90
2022-11-26T15:06:37.933Z,30.30
2022-11-26T15:09:18.047Z,32.10
2022-11-26T15:12:08.129Z,34.50
2022-11-26T15:14:42.081Z,37.70
2022-11-26T15:17:14.707Z,37.90
2022-11-26T15:19:44.216Z,27.20
2022-11-26T15:22:31.328Z,36.20
2022-11-26T15:25:00.175Z,37.70
2022-11-26T15:27:39.047Z,36.30
2022-11-26T15:30:21.181Z,31.00
2022-11-26T15:32:57.320Z,34.20
2022-11-26T15:35:25.676Z,34.60
2022-11-26T15:37:55.361Z,35.90
2022-11-26T15:40:31.752Z,42.00
2022-11-26T15:43:03.934Z,33.50
2022-11-26T15:45:41.168Z,40.40
2022-11-26T15:48:51.946Z,35.10
2022-11-26T15:51:35.423Z,43.80
2022-11-26T15:54:19.206Z,40.00
2022-11-26T15:56:52.029Z,34.60
2022-11-26T15:59:22.707Z,40.90
2022-11-26T16:01:51.835Z,40.50
2022-11-26T16:04:38.685Z,50.60
2022-11-26T16:07:10.170Z,45.10
2022-11-26T16:09:38.615Z,56.00
2022-11-26T16:12:28.284Z,69.70
2022-11-26T16:15:11.136Z,64.00
2022-11-26T16:17:42.167Z,74.60
2022-11-26T16:20:37.402Z,84.70
2022-11-26T16:23:05.933Z,91.50
2022-11-26T16:25:38.349Z,83.90
2022-11-26T16:28:09.938Z,78.80
2022-11-26T16:30:44.277Z,76.20
2022-11-26T16:33:12.812Z,82.70
2022-11-26T16:35:46.150Z,93.80
2022-11-26T16:38:20.285Z,92.60
2022-11-26T16:40:50.222Z,82.90
2022-11-26T16:43:19.749Z,78.30
2022-11-26T16:45:50.540Z,81.10
2022-11-26T16:48:26.887Z,83.10
2022-11-26T16:50:56.100Z,78.20
2022-11-26T16:53:24.709Z,60.30
2022-11-26T16:55:54.044Z,57.10
2022-11-26T16:58:29.060Z,55.80
2022-11-26T17:00:57.929Z,47.80
2022-11-26T17:03:30.117Z,49.10
2022-11-26T17:06:02.193Z,56.60
2022-11-26T17:08:31.071Z,45.20
2022-11-26T17:10:59.211Z,48.50
2022-11-26T17:13:29.799Z,45.50
2022-11-26T17:15:58.357Z,49.60
2022-11-26T17:18:27.119Z,46.90
2022-11-26T17:20:55.828Z,43.60
2022-11-26T17:23:24.470Z,46.10
2022-11-26T17:25:54.501Z,43.00
2022-11-26T17:28:23.593Z,47.60
2022-11-26T17:30:51.899Z,48.20
2022-11-26T17:33:20.393Z,50.40
2022-11-26T17:35:48.900Z,55.00
2022-11-26T17:38:21.282Z,58.50
2022-11-26T17:40:49.628Z,55.80
2022-11-26T17:43:18.099Z,53.90
2022-11-26T17:45:46.675Z,56.00
2022-11-26T17:48:15.726Z,57.40
2022-11-26T17:50:44.853Z,50.90
2022-11-26T17:53:14.314Z,47.60
2022-11-26T17:55:42.574Z,52.00
2022-11-26T17:58:14.759Z,49.60
2022-11-26T18:00:43.016Z,61.20
2022-11-26T18:03:11.321Z,50.30
2022-11-26T18:05:42.278Z,55.40
2022-11-26T18:08:11.253Z,48.80
2022-11-26T18:10:41.091Z,50.40
2022-11-26T18:13:09.504Z,47.50
2022-11-26T18:15:37.664Z,60.40
2022-11-26T18:18:05.894Z,44.60
2022-11-26T18:20:34.645Z,49.60
2022-11-26T18:23:03.009Z,54.90
2022-11-26T18:25:34.319Z,50.60
2022-11-26T18:28:02.645Z,49.90
2022-11-26T18:30:31.011Z,46.10
2022-11-26T18:32:59.474Z,66.80
2022-11-26T18:35:27.713Z,58.30
2022-11-26T18:37:56.133Z,62.20
2022-11-26T18:40:24.535Z,64.30
2022-11-26T18:42:53.165Z,72.60
2022-11-26T18:45:21.267Z,74.30
2022-11-26T18:47:49.866Z,72.10
2022-11-26T18:50:18.880Z,71.70
2022-11-26T18:52:47.473Z,68.20
2022-11-26T18:55:15.815Z,73.00
2022-11-26T18:57:44.213Z,73.90
2022-11-26T19:00:14.641Z,74.70
2022-11-26T19:02:42.791Z,67.70
2022-11-26T19:05:11.228Z,71.30
2022-11-26T19:07:39.542Z,61.70
2022-11-26T19:10:08.278Z,72.00
2022-11-26T19:12:36.559Z,76.60
2022-11-26T19:15:05.517Z,64.10
2022-11-26T19:17:33.917Z,61.20
2022-11-26T19:20:02.077Z,59.40
2022-11-26T19:22:30.401Z,66.00
2022-11-26T19:24:58.527Z,57.80
2022-11-26T19:27:26.607Z,66.00
2022-11-26T19:29:54.733Z,65.60
2022-11-26T19:32:23.085Z,65.60
2022-11-26T19:34:51.366Z,62.00
2022-11-26T19:37:20.304Z,64.20
2022-11-26T19:39:48.451Z,60.30
2022-11-26T19:42:16.901Z,63.20
2022-11-26T19:44:45.512Z,54.40
2022-11-26T19:47:13.805Z,62.60
2022-11-26T19:49:42.165Z,53.40
2022-11-26T19:52:10.572Z,56.40
2022-11-26T19:54:38.732Z,57.40
2022-11-26T19:57:07.617Z,56.20
2022-11-26T19:59:35.812Z,54.90
2022-11-26T20:02:04.165Z,56.30
2022-11-26T20:04:32.445Z,80.20
2022-11-26T20:07:00.895Z,68.70
2022-11-26T20:09:29.253Z,70.20
2022-11-26T20:11:57.549Z,62.80
2022-11-26T20:14:25.764Z,77.90
2022-11-26T20:16:57.778Z,64.40
2022-11-26T20:19:29.309Z,71.30
2022-11-26T20:21:57.437Z,66.00
2022-11-26T20:24:26.659Z,69.60
2022-11-26T20:26:55.889Z,58.70
2022-11-26T20:29:26.540Z,56.30
2022-11-26T20:31:54.966Z,60.70
2022-11-26T20:34:26.342Z,65.60
2022-11-26T20:36:54.704Z,60.50
2022-11-26T20:39:24.154Z,61.70
2022-11-26T20:41:52.367Z,71.60
2022-11-26T20:44:20.375Z,63.10
2022-11-26T20:46:48.587Z,55.40
2022-11-26T20:49:16.803Z,65.30
2022-11-26T20:51:44.922Z,61.40
2022-11-26T20:54:12.961Z,57.90
2022-11-26T20:56:41.025Z,64.40
2022-11-26T20:59:09.964Z,64.80
2022-11-26T21:01:39.004Z,62.10
2022-11-26T21:04:07.521Z,67.10
2022-11-26T21:06:36.170Z,66.50
2022-11-26T21:09:06.508Z,58.30
2022-11-26T21:11:34.831Z,58.20
2022-11-26T21:14:04.084Z,59.60
2022-11-26T21:16:33.442Z,54.70
2022-11-26T21:19:02.069Z,61.10
2022-11-26T21:21:30.521Z,53.40
2022-11-26T21:23:59.203Z,66.10
2022-11-26T21:26:27.649Z,61.70
2022-11-26T21:29:00.058Z,64.70
2022-11-26T21:31:30.541Z,62.50
2022-11-26T21:34:04.390Z,61.30
2022-11-26T21:36:33.901Z,65.00
2022-11-26T21:39:02.431Z,62.90
2022-11-26T21:41:33.719Z,62.30
2022-11-26T21:44:04.122Z,60.80
2022-11-26T21:46:38.169Z,59.90
2022-11-26T21:49:07.807Z,59.30
2022-11-26T21:51:35.943Z,57.70
2022-11-26T21:54:04.306Z,56.60
2022-11-26T21:56:32.947Z,59.40
2022-11-26T21:59:01.483Z,54.50
2022-11-26T22:01:33.156Z,58.80
2022-11-26T22:04:05.411Z,51.50
2022-11-26T22:06:34.334Z,53.90
2022-11-26T22:09:03.875Z,57.40
2022-11-26T22:11:35.897Z,50.30
2022-11-26T22:14:05.127Z,48.60
2022-11-26T22:16:34.076Z,50.30
2022-11-26T22:19:02.400Z,48.30
2022-11-26T22:21:39.612Z,50.50
2022-11-26T22:24:13.492Z,52.30
2022-11-26T22:26:42.476Z,54.80
2022-11-26T22:29:19.067Z,58.00
2022-11-26T22:31:48.537Z,53.90
2022-11-26T22:34:18.856Z,45.20
2022-11-26T22:36:46.996Z,43.80
2022-11-26T22:39:17.797Z,49.20
2022-11-26T22:41:47.853Z,44.80
2022-11-26T22:44:16.813Z,42.50
2022-11-26T22:46:45.692Z,42.20
2022-11-26T22:49:16.207Z,42.10
2022-11-26T22:51:45.121Z,54.10
2022-11-26T22:54:15.804Z,42.40
2022-11-26T22:56:43.711Z,47.90
2022-11-26T22:59:13.602Z,54.60
2022-11-26T23:01:41.694Z,53.90
2022-11-26T23:04:11.502Z,52.90
2022-11-26T23:06:40.329Z,54.60
2022-11-26T23:09:10.071Z,51.30
2022-11-26T23:11:41.056Z,57.00
2022-11-26T23:14:11.950Z,56.60
2022-11-26T23:16:42.746Z,49.00
2022-11-26T23:19:14.896Z,55.00
2022-11-26T23:21:44.731Z,55.30
2022-11-26T23:24:14.427Z,47.20
2022-11-26T23:26:42.868Z,50.50
2022-11-26T23:29:12.059Z,57.50
2022-11-26T23:31:42.537Z,48.60
2022-11-26T23:34:11.030Z,50.80
2022-11-26T23:36:39.751Z,58.60
2022-11-26T23:39:10.980Z,57.10
2022-11-26T23:41:39.332Z,62.20
2022-11-26T23:44:07.587Z,51.60
2022-11-26T23:46:35.793Z,53.50
2022-11-26T23:49:04.827Z,60.00
2022-11-26T23:51:34.285Z,53.80
2022-11-26T23:54:02.347Z,63.30
2022-11-26T23:56:33.726Z,57.80
2022-11-26T23:59:03.844Z,58.60
